Map

Track Data

SID SEASON NUMBER BASIN SUBBASIN NAME ISO_TIME NATURE LAT LON WMO_WIND WMO_PRES WMO_AGENCY TRACK_TYPE DIST2LAND LANDFALL IFLAG USA_AGENCY USA_ATCF_ID USA_LAT USA_LON USA_RECORD USA_STATUS USA_WIND USA_PRES USA_SSHS USA_R34_NE USA_R34_SE USA_R34_SW USA_R34_NW USA_R50_NE USA_R50_SE USA_R50_SW USA_R50_NW USA_R64_NE USA_R64_SE USA_R64_SW USA_R64_NW USA_POCI USA_ROCI USA_RMW USA_EYE TOKYO_LAT TOKYO_LON TOKYO_GRADE TOKYO_WIND TOKYO_PRES TOKYO_R50_DIR TOKYO_R50_LONG TOKYO_R50_SHORT TOKYO_R30_DIR TOKYO_R30_LONG TOKYO_R30_SHORT TOKYO_LAND CMA_LAT CMA_LON CMA_CAT CMA_WIND CMA_PRES HKO_LAT HKO_LON HKO_CAT HKO_WIND HKO_PRES NEWDELHI_LAT NEWDELHI_LON NEWDELHI_GRADE NEWDELHI_WIND NEWDELHI_PRES NEWDELHI_CI NEWDELHI_DP NEWDELHI_POCI REUNION_LAT REUNION_LON REUNION_TYPE REUNION_WIND REUNION_PRES REUNION_TNUM REUNION_CI REUNION_RMW REUNION_R34_NE REUNION_R34_SE REUNION_R34_SW REUNION_R34_NW REUNION_R50_NE REUNION_R50_SE REUNION_R50_SW REUNION_R50_NW REUNION_R64_NE REUNION_R64_SE REUNION_R64_SW REUNION_R64_NW BOM_LAT BOM_LON BOM_TYPE BOM_WIND BOM_PRES BOM_TNUM BOM_CI BOM_RMW BOM_R34_NE BOM_R34_SE BOM_R34_SW BOM_R34_NW BOM_R50_NE BOM_R50_SE BOM_R50_SW BOM_R50_NW BOM_R64_NE BOM_R64_SE BOM_R64_SW BOM_R64_NW BOM_ROCI BOM_POCI BOM_EYE BOM_POS_METHOD BOM_PRES_METHOD NADI_LAT NADI_LON NADI_CAT NADI_WIND NADI_PRES WELLINGTON_LAT WELLINGTON_LON WELLINGTON_WIND WELLINGTON_PRES DS824_LAT DS824_LON DS824_STAGE DS824_WIND DS824_PRES TD9636_LAT TD9636_LON TD9636_STAGE TD9636_WIND TD9636_PRES TD9635_LAT TD9635_LON TD9635_WIND TD9635_PRES TD9635_ROCI NEUMANN_LAT NEUMANN_LON NEUMANN_CLASS NEUMANN_WIND NEUMANN_PRES MLC_LAT MLC_LON MLC_CLASS MLC_WIND MLC_PRES USA_GUST BOM_GUST BOM_GUST_PER REUNION_GUST REUNION_GUST_PER USA_SEAHGT USA_SEARAD_NE USA_SEARAD_SE USA_SEARAD_SW USA_SEARAD_NW STORM_SPEED STORM_DIR
1923101S21156 1923 25 SP EA NOT_NAMED 1923-04-10 23:00:00 NR -21.2000 156.100 998 bom main 493 484 ______O_______ -1 -21.2000 156.100 998 4 8 200
1923101S21156 1923 25 SP EA NOT_NAMED 1923-04-11 00:00:00 TS -21.3231 156.070 main 484 436 ______P__O____ -1 -21.3346 156.055 -21.3000 156.100 TC 35 998 8 196
1923101S21156 1923 25 SP EA NOT_NAMED 1923-04-11 03:00:00 TS -21.7318 155.936 main 436 395 ______P__P____ -1 -21.7397 155.924 -21.7201 155.955 TC 9 196
1923101S21156 1923 25 SP EA NOT_NAMED 1923-04-11 06:00:00 TS -22.1464 155.819 main 395 354 ______P__P____ -1 -22.1497 155.812 -22.1421 155.828 TC 9 193
1923101S21156 1923 25 SP EA NOT_NAMED 1923-04-11 09:00:00 TS -22.5683 155.734 main 346 316 ______P__P____ -1 -22.5685 155.732 -22.5680 155.737 TC 9 187
1923101S21156 1923 25 SP EA NOT_NAMED 1923-04-11 12:00:00 TS -23.0000 155.700 bom main 316 289 ______O__O____ -1 -23.0000 155.700 -23.0000 155.700 TC 9 0
1923101S21156 1923 25 SP EA NOT_NAMED 1923-04-11 15:00:00 TS -23.4415 155.728 main 289 272 ______P__P____ -1 -23.4449 155.726 -23.4382 155.731 TC 9 173
1923101S21156 1923 25 SP EA NOT_NAMED 1923-04-11 18:00:00 TS -23.8830 155.810 main 272 264 ______P__P____ -1 -23.8916 155.801 -23.8743 155.819 TC 9 168
1923101S21156 1923 25 SP EA NOT_NAMED 1923-04-11 21:00:00 TS -24.3119 155.930 main 264 261 ______P__P____ -1 -24.3253 155.912 -24.2984 155.948 TC 9 165
1923101S21156 1923 25 SP EA NOT_NAMED 1923-04-11 23:00:00 TS -24.5846 156.024 bom main 266 264 ______O__P____ -1 -24.6000 156.000 -24.5692 156.048 TC 8 163
1923101S21156 1923 25 SP EA NOT_NAMED 1923-04-12 00:00:00 TS -24.7151 156.066 main 274 271 ______P__O____ -1 -24.7302 156.033 -24.7000 156.100 TC 8 165
1923101S21156 1923 25 SP EA NOT_NAMED 1923-04-12 03:00:00 TS -25.0935 156.174 main 282 282 ______P__P____ -1 -25.1003 156.139 -25.0866 156.209 TC 8 164
1923101S21156 1923 25 SP EA NOT_NAMED 1923-04-12 06:00:00 TS -25.4465 156.294 main 294 294 ______P__P____ -1 -25.4420 156.261 -25.4511 156.327 TC 7 161
1923101S21156 1923 25 SP EA NOT_NAMED 1923-04-12 09:00:00 TS -25.7754 156.431 main 314 314 ______P__P____ -1 -25.7585 156.402 -25.7922 156.459 TC 7 158
1923101S21156 1923 25 SP EA NOT_NAMED 1923-04-12 12:00:00 TS -26.0809 156.587 main 343 343 ______P__P____ -1 -26.0533 156.565 -26.1086 156.610 TC 7 153
1923101S21156 1923 25 SP EA NOT_NAMED 1923-04-12 15:00:00 TS -26.3643 156.768 main 365 363 ______P__P____ -1 -26.3295 156.752 -26.3990 156.785 TC 7 147
1923101S21156 1923 25 SP EA NOT_NAMED 1923-04-12 18:00:00 TS -26.6262 156.978 main 379 374 ______P__P____ -1 -26.5904 156.968 -26.6620 156.988 TC 6 141
1923101S21156 1923 25 SP EA NOT_NAMED 1923-04-12 21:00:00 TS -26.8677 157.220 main 383 383 ______P__P____ -1 -26.8393 157.216 -26.8962 157.225 TC 7 136
1923101S21156 1923 25 SP EA NOT_NAMED 1923-04-12 23:00:00 TS -27.0178 157.402 bom main 397 393 ______O__P____ -1 -27.0000 157.400 -27.0355 157.404 TC 7 134
1923101S21156 1923 25 SP EA NOT_NAMED 1923-04-13 00:00:00 TS -27.1027 157.495 main 402 402 ______P__O____ -1 -27.1055 157.489 -27.1000 157.500 TC 7 133
1923101S21156 1923 25 SP EA NOT_NAMED 1923-04-13 03:00:00 TS -27.3452 157.798 main 424 422 ______P__P____ -1 -27.4175 157.779 -27.2728 157.817 TC 7 129
1923101S21156 1923 25 SP EA NOT_NAMED 1923-04-13 06:00:00 TS -27.5614 158.138 main 446 446 ______P__P____ -1 -27.7054 158.104 -27.4175 158.172 TC 7 122
1923101S21156 1923 25 SP EA NOT_NAMED 1923-04-13 09:00:00 TS -27.7422 158.513 main 483 482 ______P__P____ -1 -27.9468 158.465 -27.5375 158.560 TC 8 115
1923101S21156 1923 25 SP EA NOT_NAMED 1923-04-13 12:00:00 TS -27.8779 158.920 main 520 520 ______P__P____ -1 -28.1192 158.864 -27.6367 158.975 TC 8 106
1923101S21156 1923 25 SP EA NOT_NAMED 1923-04-13 15:00:00 TS -27.9593 159.356 bom main 568 568 ______O__P____ -1 -28.2000 159.300 -27.7187 159.412 TC 8 98
1923101S21156 1923 25 SP EA NOT_NAMED 1923-04-13 18:00:00 TS -27.9860 159.818 main 607 607 ______P__P____ -1 -28.1846 159.771 -27.7873 159.866 TC 8 92
1923101S21156 1923 25 SP MM NOT_NAMED 1923-04-13 21:00:00 TS -27.9862 160.294 main 656 656 ______P__P____ -1 -28.0911 160.267 -27.8465 160.330 TC 8 88
1923101S21156 1923 25 SP MM NOT_NAMED 1923-04-13 23:00:00 TS -27.9608 160.614 bom main 686 686 ______O__P____ -1 -28.0000 160.600 -27.8825 160.643 TC 8 84
1923101S21156 1923 25 SP MM NOT_NAMED 1923-04-14 00:00:00 TS -27.9392 160.771 main 706 706 ______P__O____ -1 -27.9490 160.764 -27.9000 160.800 TC 9 72
1923101S21156 1923 25 SP MM NOT_NAMED 1923-04-14 03:00:00 NR -27.7785 161.247 main 746 746 ______P_______ -1 -27.7785 161.247 TC 9 67
1923101S21156 1923 25 SP MM NOT_NAMED 1923-04-14 06:00:00 NR -27.5843 161.717 main 757 715 ______P_______ -1 -27.5843 161.717 TC 9 64
1923101S21156 1923 25 SP MM NOT_NAMED 1923-04-14 09:00:00 NR -27.3697 162.174 main 709 668 ______P_______ -1 -27.3697 162.174 TC 9 61
1923101S21156 1923 25 SP MM NOT_NAMED 1923-04-14 12:00:00 NR -27.1383 162.621 main 659 618 ______P_______ -1 -27.1383 162.621 TC 9 59
1923101S21156 1923 25 SP MM NOT_NAMED 1923-04-14 15:00:00 NR -26.8934 163.059 main 612 572 ______P_______ -1 -26.8934 163.059 TC 9 57
1923101S21156 1923 25 SP MM NOT_NAMED 1923-04-14 18:00:00 NR -26.6384 163.491 main 562 523 ______P_______ -1 -26.6384 163.491 TC 9 56
1923101S21156 1923 25 SP MM NOT_NAMED 1923-04-14 21:00:00 NR -26.3766 163.918 main 523 489 ______P_______ -1 -26.3766 163.918 TC 9 55
1923101S21156 1923 25 SP MM NOT_NAMED 1923-04-14 23:00:00 NR -26.2000 164.200 bom main 489 ______O_______ -1 -26.2000 164.200 TC 9 55

Digital Typhoon Data and Search

About IBTrACS Database

This database is a web-friendly format of International Best Track Archive for Climate Stewardship (IBTrACS), a global best track data archive curated by NOAA dating back to 1842.

Updated: 2021-12-01